Time;durP1;ratioP1;P1;durP2;ratioP2;P2;SDS_P1;SDS_P2;PMS_P1;PMS_P2;Temp;Humidity;BMP_temperature;BMP_pressure;BME280_temperature;BME280_humidity;BME280_pressure;Samples;Min_cycle;Max_cycle;Signal;HPM_P1;HPM_P2
2021/12/04 00:00:16;;;;;;;;;1.00;1.00;;;;;11.79;77.00;99351.25;5044161;28;45787;-69
2021/12/04 00:02:42;;;;;;;;;0.00;0.00;;;;;11.76;77.34;99338.00;5033225;28;46210;-70
2021/12/04 00:05:08;;;;;;;;;0.67;0.67;;;;;11.86;77.08;99337.34;5032897;28;45704;-72
2021/12/04 00:07:36;;;;;;;;;1.00;1.00;;;;;11.88;77.14;99337.91;5033240;28;45767;-71
2021/12/04 00:10:03;;;;;;;;;1.00;1.00;;;;;11.93;77.01;99327.88;5032640;28;45658;-71
2021/12/04 00:12:31;;;;;;;;;1.00;1.00;;;;;11.93;77.56;99310.53;5032843;28;46756;-71
2021/12/04 00:14:57;;;;;;;;;1.33;1.33;;;;;11.96;77.22;99305.38;5040151;28;45902;-69
2021/12/04 00:17:23;;;;;;;;;1.00;1.00;;;;;12.00;77.76;99305.69;5053485;28;45376;-72
2021/12/04 00:19:49;;;;;;;;;0.00;0.00;;;;;12.04;77.46;99303.28;5054305;28;45555;-80
2021/12/04 00:22:15;;;;;;;;;0.00;0.00;;;;;12.06;77.41;99295.59;5055532;28;45928;-80
2021/12/04 00:24:40;;;;;;;;;0.00;0.00;;;;;12.10;77.60;99300.34;5055816;28;45959;-79
2021/12/04 00:27:06;;;;;;;;;1.33;0.67;;;;;12.12;78.12;99289.91;5054822;28;45760;-79
2021/12/04 00:29:31;;;;;;;;;2.67;1.33;;;;;12.15;77.80;99294.06;5054776;28;45383;-80
2021/12/04 00:32:11;;;;;;;;;0.00;0.00;;;;;12.14;77.94;99279.50;5054026;28;46025;-80
2021/12/04 00:34:44;;;;;;;;;0.00;0.00;;;;;12.19;78.04;99282.31;5053487;28;45705;-71
2021/12/04 00:37:28;;;;;;;;;2.00;2.00;;;;;12.18;78.03;99277.06;5034126;28;45918;-72
2021/12/04 00:50:49;;;;;;;;;0.00;0.00;;;;;12.35;77.69;99266.84;5052267;28;45583;-74
2021/12/04 00:53:15;;;;;;;;;0.00;0.00;;;;;12.42;77.46;99274.06;5051894;28;45443;-73
2021/12/04 00:55:40;;;;;;;;;0.00;0.00;;;;;12.45;77.14;99262.53;5051315;28;45540;-74
2021/12/04 00:58:06;;;;;;;;;0.33;0.33;;;;;12.44;77.44;99269.97;5052219;28;45460;-71
2021/12/04 01:00:31;;;;;;;;;0.00;0.00;;;;;12.48;76.93;99268.34;5052960;28;45794;-74
2021/12/04 01:02:56;;;;;;;;;0.00;0.00;;;;;12.50;76.92;99257.09;5052886;28;45892;-72
2021/12/04 01:05:22;;;;;;;;;0.00;0.00;;;;;12.49;77.25;99261.75;5052848;28;45507;-72
2021/12/04 01:07:47;;;;;;;;;0.00;0.00;;;;;12.56;77.40;99266.22;5053132;28;45538;-71
2021/12/04 01:10:13;;;;;;;;;0.00;0.00;;;;;12.57;77.35;99268.72;5052939;28;45708;-73
2021/12/04 01:12:38;;;;;;;;;0.00;0.00;;;;;12.61;77.68;99266.31;5043953;28;46157;-71
2021/12/04 01:15:06;;;;;;;;;0.00;0.00;;;;;12.62;76.92;99265.19;5045231;28;45374;-71
2021/12/04 01:17:31;;;;;;;;;1.00;0.00;;;;;12.64;77.00;99258.34;5052446;28;45731;-73
2021/12/04 01:19:57;;;;;;;;;0.00;0.00;;;;;12.63;77.38;99262.19;5033542;28;45729;-70
2021/12/04 01:22:22;;;;;;;;;2.00;0.00;;;;;12.69;77.21;99261.16;5055724;28;45785;-79
2021/12/04 01:24:48;;;;;;;;;0.00;0.00;;;;;12.69;77.36;99265.81;5054884;28;45322;-77
2021/12/04 01:27:14;;;;;;;;;0.00;0.00;;;;;12.69;77.32;99260.31;5058518;28;45660;-81
2021/12/04 01:29:41;;;;;;;;;0.00;0.00;;;;;12.72;77.59;99270.81;5041192;28;45761;-80
2021/12/04 01:32:08;;;;;;;;;0.00;0.00;;;;;12.73;77.62;99271.66;5059345;28;45470;-80
2021/12/04 01:34:34;;;;;;;;;0.00;0.00;;;;;12.73;77.19;99272.47;5039361;28;45648;-79
2021/12/04 01:37:01;;;;;;;;;1.00;0.00;;;;;12.75;77.54;99264.78;5056994;28;45548;-80
2021/12/04 01:39:26;;;;;;;;;0.00;0.00;;;;;12.74;78.07;99274.13;5037401;28;46036;-80
2021/12/04 01:41:52;;;;;;;;;1.00;0.00;;;;;12.75;78.20;99269.47;5055285;28;45442;-80
2021/12/04 01:44:17;;;;;;;;;0.00;0.00;;;;;12.75;78.02;99272.22;5054437;28;45786;-79
2021/12/04 01:46:43;;;;;;;;;0.00;0.00;;;;;12.72;77.68;99276.31;5051535;28;45874;-77
2021/12/04 01:49:08;;;;;;;;;1.00;0.00;;;;;12.69;77.75;99261.16;5036742;28;47072;-79
2021/12/04 01:51:34;;;;;;;;;0.00;0.00;;;;;12.72;78.18;99265.31;5054904;28;45512;-79
2021/12/04 01:53:59;;;;;;;;;0.00;0.00;;;;;12.75;78.19;99270.28;5052868;28;45459;-78
2021/12/04 01:56:36;;;;;;;;;1.00;0.00;;;;;12.76;77.68;99282.13;5034442;28;45818;-78
2021/12/04 01:59:03;;;;;;;;;0.00;0.00;;;;;12.73;78.28;99277.97;5035896;28;45588;-78
2021/12/04 02:01:31;;;;;;;;;0.00;0.00;;;;;12.78;77.81;99283.50;5052945;28;46423;-81
2021/12/04 02:03:57;;;;;;;;;0.00;0.00;;;;;12.71;77.11;99274.66;5052783;28;45585;-79
2021/12/04 02:06:22;;;;;;;;;0.00;0.00;;;;;12.79;77.74;99276.94;5053700;28;45433;-80
2021/12/04 02:08:48;;;;;;;;;0.00;0.00;;;;;12.80;77.08;99275.84;5045796;28;45904;-80
2021/12/04 02:11:13;;;;;;;;;1.00;0.00;;;;;12.79;77.48;99285.19;5036974;28;45589;-79
2021/12/04 02:13:39;;;;;;;;;0.00;0.00;;;;;12.81;76.96;99283.00;5035424;28;45422;-82
2021/12/04 02:16:15;;;;;;;;;0.00;0.00;;;;;12.82;77.09;99275.59;5053471;28;45999;-79
2021/12/04 02:18:40;;;;;;;;;0.00;0.00;;;;;12.79;76.93;99271.44;5052486;28;45890;-79
2021/12/04 02:21:06;;;;;;;;;0.00;0.00;;;;;12.87;77.45;99279.22;5052232;28;45754;-80
2021/12/04 02:23:33;;;;;;;;;0.00;0.00;;;;;12.86;76.95;99277.56;5052386;28;45477;-79
2021/12/04 02:25:59;;;;;;;;;1.00;0.00;;;;;12.87;76.58;99287.47;5052057;28;45410;-79
2021/12/04 02:28:25;;;;;;;;;0.00;0.00;;;;;12.92;77.36;99291.34;5051853;28;45605;-80
2021/12/04 02:30:50;;;;;;;;;0.00;0.00;;;;;12.93;76.87;99293.03;5034772;28;48643;-80
2021/12/04 02:33:17;;;;;;;;;0.00;0.00;;;;;12.95;76.53;99296.34;5053464;28;45895;-79
2021/12/04 02:35:51;;;;;;;;;0.00;0.00;;;;;12.98;76.10;99295.81;5032429;28;45763;-79
2021/12/04 02:38:18;;;;;;;;;0.00;0.00;;;;;12.99;76.13;99283.72;5051582;28;45721;-79
2021/12/04 02:40:46;;;;;;;;;0.00;0.00;;;;;12.97;76.52;99278.47;5051117;28;46111;-78
2021/12/04 02:43:12;;;;;;;;;0.00;0.00;;;;;13.02;75.27;99286.81;5048585;28;45356;-79
2021/12/04 02:45:38;;;;;;;;;0.00;0.00;;;;;13.06;75.92;99289.84;5038220;28;45370;-81
2021/12/04 02:48:04;;;;;;;;;0.00;0.00;;;;;13.06;76.13;99293.41;5045533;28;45708;-78
2021/12/04 02:50:29;;;;;;;;;0.00;0.00;;;;;13.08;75.32;99287.66;5043315;28;45344;-80
2021/12/04 02:52:54;;;;;;;;;0.00;0.00;;;;;13.09;74.85;99294.81;5036980;28;45408;-74
2021/12/04 02:55:20;;;;;;;;;0.00;0.00;;;;;13.11;74.96;99292.63;5033462;28;45635;-74
2021/12/04 02:57:46;;;;;;;;;0.00;0.00;;;;;13.10;75.05;99292.91;5040637;28;45420;-74
2021/12/04 03:00:21;;;;;;;;;0.00;0.00;;;;;13.14;75.21;99300.38;5030285;28;45623;-73
2021/12/04 03:02:47;;;;;;;;;0.00;0.00;;;;;13.17;74.95;99293.50;5032983;28;45726;-74
2021/12/04 03:05:13;;;;;;;;;0.00;0.00;;;;;13.15;75.22;99285.53;5030727;28;45749;-75
2021/12/04 03:07:39;;;;;;;;;0.00;0.00;;;;;13.15;75.25;99293.78;5030266;28;45826;-73
2021/12/04 03:10:07;;;;;;;;;0.00;0.00;;;;;13.18;75.13;99298.75;5030892;28;45567;-74
2021/12/04 03:12:34;;;;;;;;;0.00;0.00;;;;;13.17;74.38;99290.75;5029763;28;45436;-74
2021/12/04 03:15:00;;;;;;;;;0.00;0.00;;;;;13.18;74.14;99295.19;5019121;28;45491;-74
2021/12/04 03:17:26;;;;;;;;;0.00;0.00;;;;;13.18;74.16;99295.19;5039644;28;45709;-74
2021/12/04 03:19:53;;;;;;;;;0.00;0.00;;;;;13.17;74.27;99288.00;5033503;28;46389;-74
2021/12/04 03:22:22;;;;;;;;;0.00;0.00;;;;;13.18;74.04;99296.00;5040999;28;45524;-73
2021/12/04 03:24:48;;;;;;;;;0.00;0.00;;;;;13.17;74.02;99291.63;5030960;28;45371;-74
2021/12/04 03:27:16;;;;;;;;;1.00;0.00;;;;;13.19;73.84;99289.41;5048609;28;47091;-75
2021/12/04 03:29:47;;;;;;;;;0.00;0.00;;;;;13.18;74.34;99287.75;5050588;28;45839;-73
2021/12/04 03:42:48;;;;;;;;;0.00;0.00;;;;;13.19;74.06;99292.16;5044324;28;45794;-71
2021/12/04 03:45:14;;;;;;;;;0.00;0.00;;;;;13.18;73.98;99282.25;5042976;28;45430;-73
2021/12/04 03:47:44;;;;;;;;;0.00;0.00;;;;;13.23;73.63;99287.81;5046785;28;45727;-73
2021/12/04 03:50:10;;;;;;;;;0.00;0.00;;;;;13.24;73.28;99291.38;5034051;28;46631;-72
2021/12/04 03:52:36;;;;;;;;;0.00;0.00;;;;;13.23;72.77;99279.53;5049193;28;45399;-72
2021/12/04 03:55:06;;;;;;;;;0.00;0.00;;;;;13.22;72.96;99275.13;5051077;28;45356;-72
2021/12/04 03:57:32;;;;;;;;;0.00;0.00;;;;;13.24;73.10;99281.19;5053169;28;45506;-73
2021/12/04 04:00:01;;;;;;;;;0.00;0.00;;;;;13.25;73.07;99285.59;5050460;28;46386;-71
2021/12/04 04:02:28;;;;;;;;;0.00;0.00;;;;;13.25;72.93;99291.13;5051746;28;45421;-74
2021/12/04 04:04:54;;;;;;;;;1.00;0.00;;;;;13.23;73.10;99275.94;5053406;28;45973;-72
2021/12/04 04:07:19;;;;;;;;;0.00;0.00;;;;;13.24;72.01;99278.44;5035240;28;45864;-73
2021/12/04 04:09:45;;;;;;;;;0.00;0.00;;;;;13.23;72.14;99279.53;5033152;28;46510;-73
2021/12/04 04:12:10;;;;;;;;;0.00;0.00;;;;;13.20;72.37;99265.47;5034229;28;45790;-76
2021/12/04 04:14:36;;;;;;;;;1.00;0.00;;;;;13.22;72.59;99277.88;5052551;28;45448;-75
2021/12/04 04:17:02;;;;;;;;;0.00;0.00;;;;;13.19;72.10;99272.91;5034605;28;46803;-73
2021/12/04 04:19:27;;;;;;;;;0.00;0.00;;;;;13.25;72.17;99290.28;5053154;28;46435;-72
2021/12/04 04:21:57;;;;;;;;;0.00;0.00;;;;;13.25;72.18;99284.78;5037037;28;45379;-80
2021/12/04 04:24:25;;;;;;;;;0.00;0.00;;;;;13.25;72.48;99279.28;5038320;28;45396;-78
2021/12/04 04:26:51;;;;;;;;;0.00;0.00;;;;;13.26;72.55;99280.91;5057311;28;45373;-79
2021/12/04 04:29:16;;;;;;;;;1.00;0.00;;;;;13.26;72.07;99275.41;5048422;28;46949;-78
2021/12/04 04:31:49;;;;;;;;;0.00;0.00;;;;;13.22;71.60;99266.88;5043240;28;45468;-78
2021/12/04 04:34:30;;;;;;;;;0.00;0.00;;;;;13.22;72.19;99277.88;5037417;28;45396;-71
2021/12/04 04:58:51;;;;;;;;;0.00;0.00;;;;;13.19;70.47;99280.34;5051719;28;45476;-79
2021/12/04 05:14:25;;;;;;;;;0.00;0.00;;;;;13.27;70.78;99265.25;5053305;28;45632;-80
2021/12/04 05:17:02;;;;;;;;;0.00;0.00;;;;;13.25;71.35;99262.75;5035222;28;45759;-80
2021/12/04 05:19:38;;;;;;;;;1.00;0.00;;;;;13.22;70.92;99261.34;5034203;28;46275;-82
2021/12/04 05:22:04;;;;;;;;;0.00;0.00;;;;;13.25;70.78;99263.59;5052342;28;47050;-80
2021/12/04 05:24:30;;;;;;;;;1.00;0.00;;;;;13.26;70.75;99269.91;5052977;28;45789;-81
2021/12/04 05:26:55;;;;;;;;;0.00;0.00;;;;;13.25;71.39;99273.78;5052686;28;45442;-79
2021/12/04 05:29:21;;;;;;;;;0.00;0.00;;;;;13.24;70.62;99267.41;5052544;28;45531;-81
2021/12/04 05:31:46;;;;;;;;;0.00;0.00;;;;;13.22;71.17;99261.34;5052990;28;45771;-78
2021/12/04 05:34:12;;;;;;;;;0.00;0.00;;;;;13.25;71.13;99273.78;5036416;28;45493;-79
2021/12/04 05:36:37;;;;;;;;;0.00;0.00;;;;;13.27;70.35;99273.50;5053182;28;45808;-80
2021/12/04 05:39:04;;;;;;;;;0.00;0.00;;;;;13.27;70.27;99276.25;5056995;28;45589;-80
2021/12/04 05:41:30;;;;;;;;;0.00;0.00;;;;;13.27;69.86;99270.75;5053248;28;46227;-80
2021/12/04 05:43:56;;;;;;;;;0.33;0.00;;;;;13.28;69.92;99272.41;5035676;28;45378;-79
2021/12/04 05:46:27;;;;;;;;;0.00;0.00;;;;;13.29;70.24;99269.38;5054960;28;45817;-78
2021/12/04 05:48:58;;;;;;;;;0.00;0.00;;;;;13.31;70.37;99271.88;5035093;28;45940;-78
2021/12/04 05:56:16;;;;;;;;;0.00;0.00;;;;;13.30;70.17;99272.97;5034978;28;45788;-78
2021/12/04 05:58:41;;;;;;;;;0.00;0.00;;;;;13.34;70.44;99276.91;5053103;28;45829;-78
2021/12/04 06:01:07;;;;;;;;;0.00;0.00;;;;;13.33;70.51;99280.72;5035117;28;46311;-78
2021/12/04 06:03:33;;;;;;;;;0.00;0.00;;;;;13.33;69.64;99283.47;5036282;28;45700;-79
2021/12/04 06:05:59;;;;;;;;;0.00;0.00;;;;;13.29;69.71;99272.13;5052736;28;45330;-81
2021/12/04 06:08:25;;;;;;;;;0.67;0.00;;;;;13.31;69.80;99274.63;5043733;28;45738;-83
2021/12/04 06:10:51;;;;;;;;;0.00;0.00;;;;;13.29;69.78;99263.88;5051408;28;45963;-82
2021/12/04 06:13:18;;;;;;;;;0.00;0.00;;;;;13.28;69.83;99272.41;5034909;28;46012;-81
2021/12/04 06:15:44;;;;;;;;;0.00;0.00;;;;;13.27;69.26;99266.06;5038036;28;45583;-83
2021/12/04 06:18:10;;;;;;;;;0.00;0.00;;;;;13.24;69.34;99258.34;5034332;28;45530;-83
2021/12/04 06:23:23;;;;;;;;;0.00;0.00;;;;;13.19;70.10;99261.88;5034697;28;45431;-82
2021/12/04 06:25:50;;;;;;;;;0.00;0.00;;;;;13.12;69.76;99247.50;5028359;28;46044;-78
2021/12/04 06:28:16;;;;;;;;;0.00;0.00;;;;;13.21;69.88;99245.91;5031856;28;45371;-79
2021/12/04 06:30:43;;;;;;;;;1.00;1.00;;;;;13.17;69.37;99254.97;5028767;28;45772;-79
2021/12/04 06:33:12;;;;;;;;;0.00;0.00;;;;;13.14;70.00;99239.00;5028259;28;45639;-80
2021/12/04 06:35:40;;;;;;;;;0.00;0.00;;;;;13.14;70.37;99245.31;5031357;28;46057;-81
2021/12/04 06:38:08;;;;;;;;;0.67;0.00;;;;;13.13;69.28;99232.66;5015153;28;46020;-80
2021/12/04 06:40:34;;;;;;;;;0.00;0.00;;;;;13.11;70.31;99232.06;5030743;28;45815;-80
2021/12/04 06:43:04;;;;;;;;;1.00;1.00;;;;;13.07;70.15;99234.53;5037318;28;45304;-82
2021/12/04 06:45:34;;;;;;;;;0.67;0.00;;;;;13.03;69.87;99240.84;5029972;28;45532;-83
2021/12/04 06:48:05;;;;;;;;;0.00;0.00;;;;;13.04;70.06;99250.75;5011719;28;46130;-83
2021/12/04 06:53:00;;;;;;;;;0.00;0.00;;;;;13.03;70.11;99243.59;5030008;28;45546;-81
2021/12/04 06:55:29;;;;;;;;;0.00;0.00;;;;;13.06;70.42;99243.88;5028310;28;45711;-78
2021/12/04 06:57:55;;;;;;;;;0.00;0.00;;;;;13.12;69.90;99249.44;5031298;28;45841;-81
2021/12/04 07:00:23;;;;;;;;;0.00;0.00;;;;;13.14;69.84;99234.31;5014469;28;46761;-79
2021/12/04 07:02:48;;;;;;;;;0.00;0.00;;;;;13.17;70.32;99232.94;5029946;28;45922;-79
2021/12/04 07:05:14;;;;;;;;;0.00;0.00;;;;;13.20;70.38;99236.03;5028285;28;45553;-79
2021/12/04 07:07:39;;;;;;;;;0.00;0.00;;;;;13.19;70.51;99239.88;5032451;28;44910;-80
2021/12/04 07:10:05;;;;;;;;;1.00;1.00;;;;;13.24;70.34;99247.34;5018681;28;45579;-81
2021/12/04 07:12:30;;;;;;;;;0.00;0.00;;;;;13.24;70.29;99250.09;5073491;27;45923;-80
2021/12/04 07:14:56;;;;;;;;;0.00;0.00;;;;;13.25;71.23;99240.75;5050632;28;45871;-79
2021/12/04 07:17:21;;;;;;;;;0.67;0.00;;;;;13.23;71.39;99232.75;5070738;27;45482;-79
2021/12/04 07:19:47;;;;;;;;;0.00;0.00;;;;;13.20;71.93;99244.28;5072772;28;46332;-79
2021/12/04 07:22:12;;;;;;;;;1.00;0.00;;;;;13.20;71.67;99233.28;5074003;27;45879;-78
2021/12/04 07:24:38;;;;;;;;;0.67;0.00;;;;;13.16;71.78;99236.78;5073804;28;45422;-71
2021/12/04 07:27:05;;;;;;;;;1.00;0.00;;;;;13.18;72.02;99235.44;5049347;27;45919;-71
2021/12/04 07:29:31;;;;;;;;;0.00;0.00;;;;;13.20;72.83;99227.78;5067405;28;46476;-72
2021/12/04 07:31:57;;;;;;;;;0.67;0.00;;;;;13.20;72.89;99214.00;5068957;27;45512;-74
2021/12/04 07:34:22;;;;;;;;;0.00;0.00;;;;;13.16;72.79;99221.13;5068104;27;45618;-71
2021/12/04 07:36:48;;;;;;;;;0.33;0.33;;;;;13.18;72.14;99224.44;5067066;28;46143;-69
2021/12/04 07:39:13;;;;;;;;;1.00;0.00;;;;;13.13;72.84;99205.13;5070229;27;45779;-74
2021/12/04 07:41:42;;;;;;;;;3.00;1.00;;;;;13.20;73.54;99221.41;5066360;28;45451;-73
2021/12/04 07:44:09;;;;;;;;;1.33;1.33;;;;;13.15;73.61;99224.97;5068185;27;45527;-76
2021/12/04 07:46:39;;;;;;;;;1.00;1.00;;;;;13.14;73.25;99228.78;5067062;28;45810;-75
2021/12/04 07:49:05;;;;;;;;;0.00;0.00;;;;;13.11;73.20;99221.06;5067511;27;46554;-77
2021/12/04 07:51:44;;;;;;;;;2.00;1.67;;;;;13.05;74.06;99220.22;5071280;28;45832;-78
2021/12/04 07:54:13;;;;;;;;;2.00;0.00;;;;;13.11;74.50;99234.00;5077915;27;45675;-83
2021/12/04 07:56:39;;;;;;;;;1.33;1.00;;;;;13.10;73.87;99224.94;5052064;28;45747;-74
2021/12/04 07:59:17;;;;;;;;;1.33;0.00;;;;;13.14;73.86;99227.97;5054404;28;48103;-85
2021/12/04 08:01:42;;;;;;;;;0.00;0.00;;;;;13.12;73.66;99214.47;5070273;28;45399;-72
2021/12/04 08:04:08;;;;;;;;;0.00;0.00;;;;;13.15;73.69;99227.72;5070062;28;45513;-74
2021/12/04 08:06:36;;;;;;;;;0.00;0.00;;;;;13.15;73.37;99235.97;5070431;28;45394;-72
2021/12/04 08:09:03;;;;;;;;;2.00;0.67;;;;;13.09;73.86;99231.53;5067629;28;45738;-74
2021/12/04 08:11:28;;;;;;;;;0.00;0.00;;;;;13.13;73.56;99235.41;5069300;27;45554;-78
2021/12/04 08:13:54;;;;;;;;;0.00;0.00;;;;;13.12;74.01;99236.50;5055381;28;46037;-76
2021/12/04 08:16:24;;;;;;;;;0.00;0.00;;;;;13.15;73.54;99237.91;5071741;28;45601;-72
2021/12/04 08:18:56;;;;;;;;;0.00;0.00;;;;;13.11;73.35;99248.59;5070077;28;46519;-72
2021/12/04 08:21:22;;;;;;;;;0.00;0.00;;;;;13.10;73.01;99248.84;5069116;27;45488;-76
2021/12/04 08:23:48;;;;;;;;;0.67;0.00;;;;;13.10;72.59;99246.94;5069374;28;45543;-73
2021/12/04 08:26:14;;;;;;;;;0.00;0.00;;;;;13.13;70.95;99267.59;5061270;28;45657;-77
2021/12/04 08:28:40;;;;;;;;;0.00;0.00;;;;;13.14;70.25;99250.81;5071093;28;46079;-74
2021/12/04 08:31:05;;;;;;;;;0.00;0.00;;;;;13.16;69.69;99259.66;5075629;27;45381;-75
2021/12/04 08:33:31;;;;;;;;;0.00;0.00;;;;;13.18;68.85;99257.47;5067861;28;45808;-74
2021/12/04 08:35:56;;;;;;;;;0.00;0.00;;;;;13.23;69.18;99249.25;5057426;27;47095;-75
2021/12/04 08:38:22;;;;;;;;;0.00;0.00;;;;;13.24;68.73;99261.91;5071938;28;45489;-73
2021/12/04 08:40:48;;;;;;;;;0.00;0.00;;;;;13.22;68.97;99257.78;5068808;28;45734;-73
2021/12/04 08:43:14;;;;;;;;;0.00;0.00;;;;;13.34;67.88;99276.91;5069133;28;45556;-73
2021/12/04 08:45:41;;;;;;;;;0.00;0.00;;;;;13.38;68.24;99272.50;5062640;28;45697;-77
2021/12/04 08:48:07;;;;;;;;;0.00;0.00;;;;;13.41;67.40;99275.59;5071972;27;45918;-76
2021/12/04 08:50:34;;;;;;;;;0.00;0.00;;;;;13.47;66.24;99292.13;5068889;27;45497;-77
2021/12/04 08:53:01;;;;;;;;;1.33;0.00;;;;;13.39;66.03;99276.94;5066035;27;45749;-75
2021/12/04 08:55:29;;;;;;;;;0.00;0.00;;;;;13.53;65.82;99291.94;5061313;28;46134;-74
2021/12/04 08:57:54;;;;;;;;;0.00;0.00;;;;;13.56;65.16;99302.41;5066535;27;46512;-74
2021/12/04 09:00:39;;;;;;;;;0.00;0.00;;;;;13.61;64.70;99301.63;5073927;28;45534;-74
2021/12/04 09:03:06;;;;;;;;;0.00;0.00;;;;;13.72;64.46;99316.28;5074181;27;45683;-72
2021/12/04 09:05:32;;;;;;;;;0.00;0.00;;;;;13.79;63.83;99314.13;5066433;28;45498;-73
2021/12/04 09:07:58;;;;;;;;;0.67;0.67;;;;;13.85;62.57;99320.50;5062782;27;46434;-72
2021/12/04 09:10:23;;;;;;;;;0.00;0.00;;;;;13.91;61.37;99314.75;5070269;28;45423;-75
2021/12/04 09:12:49;;;;;;;;;0.00;0.00;;;;;14.00;60.73;99308.75;5061774;27;45614;-74
2021/12/04 09:15:20;;;;;;;;;0.67;0.00;;;;;14.03;61.35;99313.72;5053059;28;46378;-74
2021/12/04 09:17:46;;;;;;;;;0.00;0.00;;;;;14.26;60.39;99329.81;5066483;28;45418;-74
2021/12/04 09:20:15;;;;;;;;;0.33;0.00;;;;;14.43;59.62;99326.88;5064588;27;45457;-72
2021/12/04 09:22:41;;;;;;;;;0.67;0.00;;;;;14.55;58.35;99340.44;5064423;28;45657;-73
2021/12/04 09:25:15;;;;;;;;;0.00;0.00;;;;;14.68;58.01;99341.06;5067815;27;45793;-71
2021/12/04 09:27:55;;;;;;;;;0.00;0.00;;;;;14.70;57.99;99327.81;5065172;28;45964;-74
2021/12/04 09:30:58;;;;;;;;;1.00;0.00;;;;;14.85;57.15;99354.63;5049221;28;46040;-76
2021/12/04 10:06:18;;;;;;;;;0.00;0.00;;;;;14.42;55.47;99416.25;5067617;28;45513;-76
2021/12/04 10:33:40;;;;;;;;;0.67;0.00;;;;;14.18;53.95;99428.78;5061517;28;45837;-75
2021/12/04 10:36:06;;;;;;;;;0.33;0.33;;;;;14.24;54.36;99439.56;5069586;28;45754;-73
2021/12/04 10:38:40;;;;;;;;;0.00;0.00;;;;;14.21;54.29;99440.09;5077001;28;45437;-82
2021/12/04 10:41:06;;;;;;;;;0.00;0.00;;;;;14.20;53.96;99427.41;5071371;28;45871;-82
2021/12/04 10:43:32;;;;;;;;;0.00;0.00;;;;;14.34;54.13;99449.00;5055509;28;48176;-83
2021/12/04 10:46:10;;;;;;;;;0.00;0.00;;;;;14.42;53.89;99452.09;5076504;28;45427;-85
2021/12/04 10:48:48;;;;;;;;;0.00;0.00;;;;;14.54;53.88;99448.31;5090823;28;45482;-85
2021/12/04 10:53:50;;;;;;;;;0.00;0.00;;;;;14.42;52.74;99429.22;5055843;28;45993;-82
2021/12/04 10:57:04;;;;;;;;;0.67;0.00;;;;;14.45;52.14;99445.22;5063314;28;45783;-82
2021/12/04 11:02:06;;;;;;;;;0.67;0.00;;;;;14.29;53.45;99445.09;5064154;28;45775;-82
2021/12/04 11:04:43;;;;;;;;;0.00;0.00;;;;;14.15;52.67;99435.66;5040096;28;46947;-82
2021/12/04 11:07:24;;;;;;;;;0.00;0.00;;;;;14.06;53.88;99451.03;5071227;28;45446;-85
2021/12/04 11:18:38;;;;;;;;;6.00;1.33;;;;;13.92;54.58;99470.78;5075165;28;45980;-81
2021/12/04 11:18:53;;;;;;;;;2.33;1.33;;;;;13.75;54.86;99467.28;5075696;27;45579;-80
2021/12/04 11:38:00;;;;;;;;;1.00;1.00;;;;;12.87;59.30;99507.59;5082426;28;45968;-80
2021/12/04 11:43:10;;;;;;;;;4.00;2.67;;;;;12.60;59.25;99528.66;5079542;28;45433;-81
2021/12/04 11:45:46;;;;;;;;;2.00;1.00;;;;;12.42;59.60;99538.00;5075902;28;45542;-81
2021/12/04 11:48:12;;;;;;;;;1.67;1.67;;;;;12.27;60.10;99538.59;5069848;28;45582;-80
2021/12/04 11:50:52;;;;;;;;;2.00;2.00;;;;;12.18;59.92;99538.19;5056607;28;45715;-80
2021/12/04 11:53:19;;;;;;;;;3.00;2.00;;;;;12.06;58.68;99541.00;5073644;28;45831;-77
2021/12/04 11:55:48;;;;;;;;;21.33;16.33;;;;;12.06;59.18;99541.00;5055612;28;46032;-75
2021/12/04 11:58:27;;;;;;;;;14.00;14.00;;;;;12.12;59.45;99547.41;5055699;28;46490;-76
2021/12/04 12:00:58;;;;;;;;;5.33;3.00;;;;;12.27;59.84;99539.41;5055912;28;45867;-75
2021/12/04 12:03:27;;;;;;;;;2.00;2.00;;;;;12.35;59.46;99554.69;5074478;28;45660;-75
2021/12/04 12:05:58;;;;;;;;;9.33;6.67;;;;;12.40;59.73;99554.75;5071465;28;45450;-75
2021/12/04 12:08:31;;;;;;;;;2.00;2.00;;;;;12.35;59.34;99560.19;5052364;28;45638;-83
2021/12/04 12:11:46;;;;;;;;;3.00;3.00;;;;;12.36;58.76;99562.69;5048825;28;46386;-84
2021/12/04 12:14:12;;;;;;;;;4.33;4.33;;;;;12.38;58.54;99531.34;5050396;28;45357;-85
2021/12/04 12:16:48;;;;;;;;;5.00;3.00;;;;;12.70;56.81;99564.56;5027889;28;45832;-83
2021/12/04 12:19:30;;;;;;;;;6.33;4.00;;;;;12.87;55.31;99564.53;5034631;28;46927;-84
2021/12/04 12:22:04;;;;;;;;;3.67;3.67;;;;;12.77;54.39;99545.13;5034232;28;45412;-82
2021/12/04 12:33:13;;;;;;;;;8.00;3.00;;;;;13.00;52.15;99605.44;5057577;28;45509;-86
2021/12/04 12:38:30;;;;;;;;;3.67;3.67;;;;;12.95;53.06;99610.91;5060273;28;45107;-84
2021/12/04 12:41:09;;;;;;;;;1.67;1.67;;;;;12.97;52.25;99616.16;5039637;28;47225;-83
2021/12/04 12:43:52;;;;;;;;;3.67;2.33;;;;;12.99;51.97;99634.06;5037371;28;45406;-85
2021/12/04 12:46:18;;;;;;;;;3.00;2.67;;;;;12.89;51.94;99632.00;5049571;28;45661;-81
2021/12/04 12:48:55;;;;;;;;;8.00;3.67;;;;;12.92;52.43;99627.91;5042415;28;45581;-80
2021/12/04 12:51:35;;;;;;;;;3.67;3.33;;;;;12.93;53.00;99646.06;5039913;28;46241;-78
2021/12/04 12:54:05;;;;;;;;;3.33;2.33;;;;;12.89;52.03;99651.25;5037672;28;45807;-82
2021/12/04 12:56:34;;;;;;;;;4.00;4.00;;;;;12.83;51.75;99643.16;5046323;28;45360;-82
2021/12/04 12:59:12;;;;;;;;;4.00;4.00;;;;;12.71;52.74;99652.34;5037962;28;45854;-82
2021/12/04 13:13:32;;;;;;;;;9.33;5.00;;;;;12.19;53.09;99658.88;5062803;28;45478;-81
2021/12/04 13:16:05;;;;;;;;;11.33;9.67;;;;;12.15;53.18;99663.19;5069844;28;45872;-83
2021/12/04 13:18:33;;;;;;;;;8.67;6.67;;;;;12.06;52.59;99670.16;5069286;28;45369;-84
2021/12/04 13:21:06;;;;;;;;;12.00;8.67;;;;;11.99;52.17;99663.97;5076997;28;45676;-83
2021/12/04 13:23:32;;;;;;;;;8.00;7.00;;;;;11.91;52.09;99647.84;5074016;27;45349;-83
2021/12/04 13:26:02;;;;;;;;;8.33;6.67;;;;;11.95;51.87;99668.31;5074292;28;45464;-81
2021/12/04 13:28:31;;;;;;;;;3.33;3.00;;;;;11.98;50.99;99667.81;5056586;28;45675;-83
2021/12/04 13:31:01;;;;;;;;;2.67;2.00;;;;;11.99;50.23;99672.22;5063599;28;45591;-84
2021/12/04 13:33:32;;;;;;;;;4.00;3.00;;;;;12.22;49.71;99689.72;5067450;27;46086;-83
2021/12/04 13:35:58;;;;;;;;;5.67;2.00;;;;;12.37;49.49;99681.75;5068656;28;45236;-83
2021/12/04 13:38:25;;;;;;;;;8.00;7.00;;;;;12.39;48.42;99671.31;5050143;28;45414;-83
2021/12/04 13:40:54;;;;;;;;;2.33;2.00;;;;;12.40;47.09;99670.25;5072390;28;45466;-82
2021/12/04 13:43:23;;;;;;;;;2.67;2.67;;;;;12.49;47.57;99673.44;5072023;28;46535;-82
2021/12/04 13:45:59;;;;;;;;;3.67;2.00;;;;;12.44;46.67;99671.41;5049931;28;45514;-82
2021/12/04 13:48:26;;;;;;;;;3.67;2.33;;;;;12.41;47.46;99671.91;5074008;28;45456;-82
2021/12/04 13:50:55;;;;;;;;;5.67;3.00;;;;;12.37;47.42;99668.00;5049451;28;45501;-83
2021/12/04 13:53:26;;;;;;;;;2.67;1.00;;;;;12.26;46.15;99649.63;5070828;28;45510;-81
2021/12/04 13:56:04;;;;;;;;;3.00;3.00;;;;;12.26;47.00;99668.88;5072596;28;45563;-83
2021/12/04 13:58:30;;;;;;;;;4.00;1.33;;;;;12.16;46.94;99639.31;5069234;28;45400;-80
2021/12/04 14:00:58;;;;;;;;;2.00;2.00;;;;;12.30;47.57;99661.81;5057133;28;47358;-81
2021/12/04 14:03:27;;;;;;;;;4.33;2.00;;;;;12.28;47.04;99652.97;5068390;28;46641;-82
2021/12/04 14:05:53;;;;;;;;;3.00;2.33;;;;;12.29;46.82;99654.63;5082657;27;45532;-83
2021/12/04 14:08:24;;;;;;;;;5.33;2.67;;;;;12.19;47.17;99631.38;5050039;28;45890;-82
2021/12/04 14:10:50;;;;;;;;;4.00;3.00;;;;;12.37;45.97;99648.75;5083349;27;46068;-81
2021/12/04 14:13:24;;;;;;;;;3.00;3.00;;;;;12.45;46.30;99661.25;5052411;28;47959;-84
2021/12/04 14:15:54;;;;;;;;;2.33;1.00;;;;;12.48;45.86;99660.75;5059721;28;45760;-82
2021/12/04 14:18:25;;;;;;;;;3.00;2.67;;;;;12.53;46.27;99669.94;5059438;28;45449;-82
2021/12/04 14:20:54;;;;;;;;;6.67;4.00;;;;;12.47;45.84;99662.69;5064315;27;45186;-81
2021/12/04 14:23:24;;;;;;;;;2.00;2.00;;;;;12.52;46.14;99678.44;5063929;28;46169;-80
2021/12/04 14:25:54;;;;;;;;;6.33;2.00;;;;;12.48;46.70;99680.81;5062149;28;45662;-81
2021/12/04 14:28:22;;;;;;;;;7.33;3.00;;;;;12.38;45.57;99683.41;5070394;28;45643;-81
2021/12/04 14:30:49;;;;;;;;;4.00;1.33;;;;;12.18;46.35;99662.72;5064538;28;45536;-82
2021/12/04 14:33:19;;;;;;;;;4.67;2.33;;;;;12.23;45.88;99691.34;5060481;28;46271;-83
2021/12/04 14:35:47;;;;;;;;;2.00;2.00;;;;;12.04;45.63;99697.06;5071463;28;45428;-81
2021/12/04 14:38:17;;;;;;;;;3.67;1.00;;;;;12.08;45.97;99708.38;5055325;27;45772;-80